Terminal Aerodrome Forecast
Issued by NWS Louisville, KY

Home | Current Version | Previous Version | Text Only | Print | Product List | Glossary On
Versions: 1 2 3 4 5 6 7 8 9 10 11 12 13
000
FTUS43 KLMK 041000 AAA
TAFBWG
TAF AMD
KBWG 041014Z 0410/0506 VRB03KT P6SM SCT150
     FM041400 22009KT P6SM SCT150
     FM050200 19003KT P6SM BKN250=

USA.gov is the U.S. government's official web portal to all federal, state and local government web resources and services.